createdAt,value
2018-06-08T00:00:02.998Z,13.17
2018-06-08T00:02:32.368Z,13.73
2018-06-08T00:05:01.796Z,11.60
2018-06-08T00:07:31.170Z,12.40
2018-06-08T00:10:00.477Z,12.30
2018-06-08T00:12:29.932Z,11.93
2018-06-08T00:14:59.249Z,12.70
2018-06-08T00:17:28.736Z,12.23
2018-06-08T00:19:58.033Z,12.97
2018-06-08T00:22:27.426Z,11.80
2018-06-08T00:24:56.784Z,11.80
2018-06-08T00:27:26.001Z,12.07
2018-06-08T00:29:55.588Z,12.63
2018-06-08T00:32:25.086Z,13.37
2018-06-08T00:34:54.607Z,13.23
2018-06-08T00:37:24.393Z,12.40
2018-06-08T00:39:53.696Z,13.43
2018-06-08T00:42:23.026Z,13.03
2018-06-08T00:44:52.528Z,13.00
2018-06-08T00:47:22.145Z,14.13
2018-06-08T00:49:51.322Z,14.27
2018-06-08T00:52:20.883Z,15.17
2018-06-08T00:54:50.183Z,13.37
2018-06-08T00:57:19.440Z,14.00
2018-06-08T00:59:49.063Z,14.43
2018-06-08T01:02:18.433Z,13.80
2018-06-08T01:04:47.671Z,15.20
2018-06-08T01:07:17.092Z,13.80
2018-06-08T01:09:46.680Z,13.67
2018-06-08T01:12:15.983Z,14.30
2018-06-08T01:14:45.667Z,13.97
2018-06-08T01:17:15.055Z,13.50
2018-06-08T01:19:44.446Z,13.10
2018-06-08T01:22:14.252Z,13.17
2018-06-08T01:24:43.491Z,13.93
2018-06-08T01:27:12.894Z,13.67
2018-06-08T01:29:42.368Z,14.33
2018-06-08T01:32:12.077Z,14.37
2018-06-08T01:34:41.213Z,14.33
2018-06-08T01:37:10.554Z,14.83
2018-06-08T01:39:40.140Z,15.03
2018-06-08T01:42:09.677Z,15.00
2018-06-08T01:44:39.034Z,15.10
2018-06-08T01:47:08.159Z,15.00
2018-06-08T01:49:37.492Z,16.70
2018-06-08T01:52:06.883Z,16.20
2018-06-08T01:54:36.359Z,16.07
2018-06-08T01:57:05.628Z,16.63
2018-06-08T01:59:35.953Z,17.13
2018-06-08T02:02:05.360Z,16.83
2018-06-08T02:04:34.726Z,16.27
2018-06-08T02:07:04.012Z,14.77
2018-06-08T02:09:33.412Z,16.30
2018-06-08T02:12:02.609Z,16.07
2018-06-08T02:14:32.203Z,17.10
2018-06-08T02:17:01.404Z,15.73
2018-06-08T02:19:30.827Z,16.30
2018-06-08T02:21:59.876Z,16.67
2018-06-08T02:24:29.090Z,15.50
2018-06-08T02:26:58.078Z,15.53
2018-06-08T02:29:27.480Z,15.43
2018-06-08T02:31:56.519Z,15.63
2018-06-08T02:34:25.624Z,14.60
2018-06-08T02:36:54.727Z,15.83
2018-06-08T02:39:23.677Z,14.33
2018-06-08T02:41:52.791Z,14.90
2018-06-08T02:44:22.022Z,15.43
2018-06-08T02:46:51.267Z,14.67
2018-06-08T02:49:20.434Z,14.37
2018-06-08T02:51:49.916Z,15.27
2018-06-08T02:54:19.051Z,14.40
2018-06-08T02:56:48.325Z,14.90
2018-06-08T02:59:17.689Z,16.30
2018-06-08T03:01:46.787Z,14.73
2018-06-08T03:04:16.165Z,15.30
2018-06-08T03:06:45.307Z,16.50
2018-06-08T03:09:15.071Z,15.03
2018-06-08T03:11:44.442Z,15.37
2018-06-08T03:14:13.799Z,14.07
2018-06-08T03:16:43.310Z,14.33
2018-06-08T03:19:12.789Z,14.57
2018-06-08T03:21:42.597Z,15.93
2018-06-08T03:24:12.329Z,14.57
2018-06-08T03:26:42.018Z,15.43
2018-06-08T03:29:11.629Z,15.33
2018-06-08T03:31:41.173Z,15.47
2018-06-08T03:34:11.249Z,14.07
2018-06-08T03:36:41.335Z,13.37
2018-06-08T03:39:11.205Z,15.77
2018-06-08T03:41:40.383Z,14.03
2018-06-08T03:44:10.162Z,15.03
2018-06-08T03:46:40.718Z,15.97
2018-06-08T03:49:10.607Z,15.27
2018-06-08T03:51:40.348Z,16.87
2018-06-08T03:54:10.027Z,15.60
2018-06-08T03:56:39.855Z,15.93
2018-06-08T03:59:10.063Z,14.77
2018-06-08T04:01:39.839Z,15.33
2018-06-08T04:04:09.563Z,14.90
2018-06-08T04:06:38.907Z,15.83
2018-06-08T04:09:09.152Z,15.53
2018-06-08T04:11:38.557Z,16.57
2018-06-08T04:14:09.058Z,15.43
2018-06-08T04:16:38.668Z,15.63
2018-06-08T04:19:08.328Z,15.93
2018-06-08T04:21:37.896Z,15.17
2018-06-08T04:24:07.782Z,16.13
2018-06-08T04:26:37.582Z,16.07
2018-06-08T04:29:07.627Z,14.10
2018-06-08T04:31:37.462Z,16.53
2018-06-08T04:34:07.449Z,15.50
2018-06-08T04:36:37.083Z,15.17
2018-06-08T04:39:08.597Z,15.17
2018-06-08T04:41:38.033Z,16.13
2018-06-08T04:44:07.920Z,15.87
2018-06-08T04:46:38.159Z,17.57
2018-06-08T04:49:07.995Z,19.43
2018-06-08T04:51:37.533Z,18.13
2018-06-08T04:54:07.467Z,17.20
2018-06-08T04:56:46.909Z,15.47
2018-06-08T04:59:21.522Z,16.97
2018-06-08T05:01:58.071Z,17.33
2018-06-08T05:04:28.167Z,17.60
2018-06-08T05:06:57.968Z,18.23
2018-06-08T05:09:27.943Z,17.60
2018-06-08T05:11:57.525Z,18.80
2018-06-08T05:14:27.149Z,19.03
2018-06-08T05:16:56.944Z,20.20
2018-06-08T05:19:26.323Z,18.03
2018-06-08T05:21:55.815Z,15.40
2018-06-08T05:24:25.368Z,16.63
2018-06-08T05:26:55.371Z,16.13
2018-06-08T05:29:25.205Z,17.40
2018-06-08T05:31:54.717Z,13.10
2018-06-08T05:34:24.175Z,16.43
2018-06-08T05:36:53.757Z,14.43
2018-06-08T05:39:23.703Z,15.17
2018-06-08T05:41:53.571Z,14.10
2018-06-08T05:44:23.157Z,14.30
2018-06-08T05:46:52.919Z,13.97
2018-06-08T05:49:23.023Z,13.27
2018-06-08T05:51:52.913Z,13.73
2018-06-08T05:54:22.658Z,13.67
2018-06-08T05:56:52.532Z,16.50
2018-06-08T05:59:22.426Z,17.53
2018-06-08T06:01:52.116Z,16.60
2018-06-08T06:04:21.868Z,16.67
2018-06-08T06:06:51.488Z,17.50
2018-06-08T06:09:20.919Z,18.07
2018-06-08T06:11:50.575Z,16.03
2018-06-08T06:14:20.275Z,15.07
2018-06-08T06:16:50.183Z,15.20
2018-06-08T06:19:19.868Z,15.70
2018-06-08T06:21:49.449Z,14.50
2018-06-08T06:24:19.035Z,13.40
2018-06-08T06:26:48.583Z,14.70
2018-06-08T06:29:17.999Z,14.87
2018-06-08T06:31:47.739Z,14.57
2018-06-08T06:34:17.535Z,16.17
2018-06-08T06:36:47.298Z,13.90
2018-06-08T06:39:16.853Z,14.30
2018-06-08T06:41:46.523Z,13.17
2018-06-08T06:44:15.828Z,14.63
2018-06-08T06:46:45.662Z,14.50
2018-06-08T06:49:15.729Z,14.17
2018-06-08T06:51:45.682Z,12.97
2018-06-08T06:54:15.378Z,13.37
2018-06-08T06:56:45.460Z,14.00
2018-06-08T06:59:15.698Z,15.43
2018-06-08T07:01:45.915Z,13.77
2018-06-08T07:04:15.571Z,13.07
2018-06-08T07:06:45.424Z,15.17
2018-06-08T07:09:15.304Z,15.27
2018-06-08T07:11:45.054Z,14.87
2018-06-08T07:14:14.986Z,15.27
2018-06-08T07:16:44.661Z,14.57
2018-06-08T07:19:14.665Z,14.23
2018-06-08T07:21:44.680Z,14.13
2018-06-08T07:24:14.353Z,13.13
2018-06-08T07:26:43.820Z,12.53
2018-06-08T07:29:13.709Z,12.97
2018-06-08T07:31:43.147Z,12.27
2018-06-08T07:34:12.941Z,13.40
2018-06-08T07:36:43.072Z,12.83
2018-06-08T07:39:13.111Z,12.57
2018-06-08T07:41:43.052Z,12.60
2018-06-08T07:44:12.875Z,12.60
2018-06-08T07:46:42.853Z,13.17
2018-06-08T07:49:12.645Z,12.17
2018-06-08T07:51:42.257Z,12.60
2018-06-08T07:54:12.089Z,12.67
2018-06-08T07:56:41.736Z,14.40
2018-06-08T07:59:11.615Z,14.27
2018-06-08T08:01:41.424Z,14.07
2018-06-08T08:04:11.201Z,14.17
2018-06-08T08:06:40.947Z,13.90
2018-06-08T08:09:11.036Z,11.90
2018-06-08T08:11:40.860Z,12.90
2018-06-08T08:14:10.581Z,12.67
2018-06-08T08:16:40.145Z,12.37
2018-06-08T08:19:10.858Z,12.53
2018-06-08T08:21:40.564Z,12.30
2018-06-08T08:24:10.362Z,11.93
2018-06-08T08:26:40.116Z,12.90
2018-06-08T08:29:09.986Z,12.33
2018-06-08T08:31:39.688Z,12.67
2018-06-08T08:34:09.595Z,12.00
2018-06-08T08:36:39.424Z,11.93
2018-06-08T08:39:10.005Z,12.53
2018-06-08T08:41:39.751Z,12.53
2018-06-08T08:44:09.325Z,12.47
2018-06-08T08:46:38.983Z,11.60
2018-06-08T08:49:08.538Z,12.00
2018-06-08T08:51:38.138Z,11.33
2018-06-08T08:54:07.811Z,11.63
2018-06-08T08:56:37.939Z,12.53
2018-06-08T08:59:07.572Z,11.20
2018-06-08T09:01:36.997Z,11.77
2018-06-08T09:04:06.636Z,12.53
2018-06-08T09:06:36.043Z,12.40
2018-06-08T09:09:07.906Z,11.80
2018-06-08T09:11:37.641Z,11.87
2018-06-08T09:14:07.636Z,12.27
2018-06-08T09:16:37.652Z,13.03
2018-06-08T09:19:07.871Z,12.40
2018-06-08T09:21:37.930Z,11.87
2018-06-08T09:24:07.715Z,13.27
2018-06-08T09:26:37.784Z,12.93
2018-06-08T09:29:07.709Z,10.93
2018-06-08T09:31:37.418Z,12.67
2018-06-08T09:34:06.916Z,11.80
2018-06-08T09:36:36.488Z,12.27
2018-06-08T09:39:08.147Z,9.97
2018-06-08T09:41:37.834Z,9.20
2018-06-08T09:44:07.624Z,9.70
2018-06-08T09:46:37.478Z,9.20
2018-06-08T09:49:07.605Z,9.40
2018-06-08T09:51:37.164Z,9.57
2018-06-08T09:54:06.764Z,9.03
2018-06-08T09:56:36.939Z,9.63
2018-06-08T09:59:06.683Z,10.23
2018-06-08T10:01:35.893Z,10.93
2018-06-08T10:04:05.544Z,10.00
2018-06-08T10:06:35.260Z,9.97
2018-06-08T10:09:07.074Z,8.90
2018-06-08T10:11:36.868Z,9.30
2018-06-08T10:14:06.113Z,8.53
2018-06-08T10:16:35.711Z,9.00
2018-06-08T10:19:05.210Z,9.13
2018-06-08T10:21:34.998Z,9.03
2018-06-08T10:24:04.810Z,8.50
2018-06-08T10:26:34.427Z,9.63
2018-06-08T10:29:04.004Z,9.77
2018-06-08T10:31:33.561Z,10.30
2018-06-08T10:34:03.357Z,10.47
2018-06-08T10:36:32.840Z,10.00
2018-06-08T10:39:02.431Z,10.97
2018-06-08T10:41:32.096Z,10.77
2018-06-08T10:44:01.945Z,10.53
2018-06-08T10:46:31.402Z,9.93
2018-06-08T10:49:00.680Z,9.17
2018-06-08T10:51:30.468Z,9.10
2018-06-08T10:54:00.130Z,9.50
2018-06-08T10:56:30.206Z,10.23
2018-06-08T10:59:01.074Z,8.95
2018-06-08T11:01:33.506Z,9.53
2018-06-08T11:04:03.048Z,9.03
2018-06-08T11:06:32.902Z,10.00
2018-06-08T11:09:02.624Z,9.98
2018-06-08T11:11:32.360Z,10.03
2018-06-08T11:14:02.363Z,9.30
2018-06-08T11:16:31.839Z,9.35
2018-06-08T11:19:01.685Z,10.05
2018-06-08T11:21:31.183Z,9.40
2018-06-08T11:24:01.152Z,10.38
2018-06-08T11:26:30.640Z,9.55
2018-06-08T11:29:00.178Z,9.80
2018-06-08T11:31:29.770Z,9.67
2018-06-08T11:33:59.210Z,9.88
2018-06-08T11:36:29.144Z,9.38
2018-06-08T11:38:58.428Z,9.65
2018-06-08T11:41:28.000Z,10.82
2018-06-08T11:43:57.886Z,10.08
2018-06-08T11:46:28.089Z,9.95
2018-06-08T11:48:58.053Z,9.57
2018-06-08T11:51:27.736Z,9.85
2018-06-08T11:53:57.302Z,9.50
2018-06-08T11:56:27.075Z,10.03
2018-06-08T11:58:56.599Z,9.60
2018-06-08T12:01:26.424Z,9.38
2018-06-08T12:03:56.080Z,9.70
2018-06-08T12:06:25.732Z,9.30
2018-06-08T12:08:55.561Z,9.35
2018-06-08T12:11:25.625Z,9.80
2018-06-08T12:13:55.152Z,8.20
2018-06-08T12:16:24.785Z,9.33
2018-06-08T12:18:54.473Z,10.17
2018-06-08T12:21:24.069Z,9.27
2018-06-08T12:23:53.506Z,9.13
2018-06-08T12:26:23.162Z,9.07
2018-06-08T12:28:52.513Z,9.85
2018-06-08T12:31:22.195Z,9.10
2018-06-08T12:33:52.705Z,10.10
2018-06-08T12:36:22.303Z,9.60
2018-06-08T12:38:51.752Z,9.10
2018-06-08T12:41:21.208Z,8.53
2018-06-08T12:43:50.951Z,9.60
2018-06-08T12:46:20.631Z,9.93
2018-06-08T12:48:50.369Z,9.98
2018-06-08T12:51:20.059Z,9.90
2018-06-08T12:53:50.653Z,9.93
2018-06-08T12:56:20.210Z,9.57
2018-06-08T12:58:50.238Z,9.75
2018-06-08T13:01:20.737Z,9.60
2018-06-08T13:03:51.322Z,9.58
2018-06-08T13:06:21.379Z,9.13
2018-06-08T13:08:51.180Z,9.43
2018-06-08T13:11:20.733Z,9.95
2018-06-08T13:13:50.985Z,9.65
2018-06-08T13:16:20.927Z,8.65
2018-06-08T13:18:50.689Z,8.80
2018-06-08T13:21:20.562Z,9.15
2018-06-08T13:23:50.275Z,8.00
2018-06-08T13:26:19.851Z,9.20
2018-06-08T13:28:49.403Z,8.53
2018-06-08T13:31:19.041Z,9.23
2018-06-08T13:33:48.705Z,9.73
2018-06-08T13:36:19.797Z,9.30
2018-06-08T13:38:49.245Z,9.13
2018-06-08T13:41:18.692Z,8.43
2018-06-08T13:43:48.112Z,8.05
2018-06-08T13:46:28.681Z,9.18
2018-06-08T13:48:58.367Z,9.40
2018-06-08T13:51:28.201Z,8.68
2018-06-08T13:53:58.148Z,9.33
2018-06-08T13:56:27.761Z,8.98
2018-06-08T13:58:57.226Z,9.30
2018-06-08T14:01:27.001Z,7.90
2018-06-08T14:03:57.054Z,8.33
2018-06-08T14:06:26.898Z,8.70
2018-06-08T14:08:56.282Z,8.60
2018-06-08T14:11:25.836Z,8.63
2018-06-08T14:13:55.612Z,8.53
2018-06-08T14:16:25.630Z,9.43
2018-06-08T14:18:55.614Z,8.93
2018-06-08T14:21:25.312Z,8.83
2018-06-08T14:23:54.857Z,9.17
2018-06-08T14:26:24.568Z,8.63
2018-06-08T14:28:54.024Z,9.10
2018-06-08T14:31:23.416Z,9.20
2018-06-08T14:33:53.214Z,8.53
2018-06-08T14:36:23.086Z,9.23
2018-06-08T14:38:52.777Z,8.63
2018-06-08T14:41:22.690Z,8.88
2018-06-08T14:43:52.514Z,9.73
2018-06-08T14:46:22.196Z,9.67
2018-06-08T14:48:51.944Z,9.00
2018-06-08T14:51:21.817Z,9.30
2018-06-08T14:53:51.665Z,8.85
2018-06-08T14:56:21.219Z,8.90
2018-06-08T14:58:50.741Z,8.95
2018-06-08T15:01:20.729Z,9.70
2018-06-08T15:03:50.649Z,8.80
2018-06-08T15:06:20.196Z,9.65
2018-06-08T15:08:50.043Z,9.60
2018-06-08T15:11:19.383Z,9.75
2018-06-08T15:13:48.928Z,10.00
2018-06-08T15:16:18.761Z,9.93
2018-06-08T15:18:48.437Z,9.93
2018-06-08T15:21:18.207Z,9.87
2018-06-08T15:23:47.742Z,10.00
2018-06-08T15:26:17.537Z,9.53
2018-06-08T15:28:47.338Z,9.23
2018-06-08T15:31:22.160Z,9.70
2018-06-08T15:33:55.565Z,9.63
2018-06-08T15:36:25.432Z,9.63
2018-06-08T15:38:56.792Z,10.17
2018-06-08T15:41:26.137Z,10.07
2018-06-08T15:43:55.867Z,9.97
2018-06-08T15:46:25.909Z,9.90
2018-06-08T15:48:55.893Z,9.80
2018-06-08T15:51:25.774Z,10.30
2018-06-08T15:53:56.111Z,9.57
2018-06-08T15:56:25.838Z,10.53
2018-06-08T15:58:55.627Z,9.73
2018-06-08T16:01:25.718Z,9.77
2018-06-08T16:03:55.284Z,9.87
2018-06-08T16:06:25.093Z,10.13
2018-06-08T16:08:55.053Z,9.57
2018-06-08T16:11:25.022Z,10.03
2018-06-08T16:13:55.601Z,10.37
2018-06-08T16:16:25.720Z,9.97
2018-06-08T16:18:55.679Z,10.13
2018-06-08T16:21:25.584Z,10.30
2018-06-08T16:23:55.632Z,10.33
2018-06-08T16:26:25.872Z,9.93
2018-06-08T16:28:55.722Z,9.53
2018-06-08T16:31:25.626Z,9.97
2018-06-08T16:33:55.638Z,11.10
2018-06-08T16:36:25.460Z,11.00
2018-06-08T16:38:55.645Z,10.90
2018-06-08T16:41:25.304Z,11.27
2018-06-08T16:43:55.228Z,10.40
2018-06-08T16:46:25.137Z,12.00
2018-06-08T16:48:54.730Z,10.93
2018-06-08T16:51:24.709Z,12.37
2018-06-08T16:53:54.287Z,13.53
2018-06-08T16:56:23.937Z,11.10
2018-06-08T16:58:53.712Z,11.67
2018-06-08T17:01:23.652Z,11.90
2018-06-08T17:03:53.492Z,11.40
2018-06-08T17:06:23.334Z,11.10
2018-06-08T17:08:53.054Z,11.30
2018-06-08T17:11:23.174Z,11.13
2018-06-08T17:13:53.234Z,11.30
2018-06-08T17:16:22.779Z,11.00
2018-06-08T17:18:52.840Z,10.50
2018-06-08T17:21:22.353Z,10.53
2018-06-08T17:23:52.111Z,10.63
2018-06-08T17:26:21.732Z,11.63
2018-06-08T17:28:51.754Z,11.13
2018-06-08T17:31:21.717Z,11.43
2018-06-08T17:33:52.412Z,12.27
2018-06-08T17:36:22.432Z,11.90
2018-06-08T17:38:52.299Z,12.13
2018-06-08T17:41:22.176Z,11.60
2018-06-08T17:43:51.937Z,11.20
2018-06-08T17:46:22.322Z,11.37
2018-06-08T17:48:52.176Z,11.13
2018-06-08T17:51:22.132Z,10.73
2018-06-08T17:53:52.018Z,11.17
2018-06-08T17:56:21.988Z,11.10
2018-06-08T17:58:51.560Z,10.57
2018-06-08T18:01:21.910Z,10.23
2018-06-08T18:03:52.004Z,11.13
2018-06-08T18:06:21.826Z,10.47
2018-06-08T18:08:51.552Z,10.00
2018-06-08T18:11:21.048Z,11.07
2018-06-08T18:13:50.919Z,11.60
2018-06-08T18:16:20.838Z,12.40
2018-06-08T18:18:51.270Z,11.73
2018-06-08T18:21:22.522Z,11.53
2018-06-08T18:23:52.356Z,10.77
2018-06-08T18:26:22.374Z,11.50
2018-06-08T18:28:52.273Z,11.73
2018-06-08T18:31:22.203Z,12.03
2018-06-08T18:33:51.727Z,11.13
2018-06-08T18:36:21.429Z,10.70
2018-06-08T18:38:51.032Z,10.50
2018-06-08T18:41:21.023Z,11.67
2018-06-08T18:43:51.833Z,11.00
2018-06-08T18:46:21.836Z,9.60
2018-06-08T18:48:51.263Z,10.77
2018-06-08T18:51:20.887Z,11.27
2018-06-08T18:53:50.799Z,11.13
2018-06-08T18:56:20.716Z,10.23
2018-06-08T18:58:50.528Z,11.23
2018-06-08T19:01:20.534Z,11.03
2018-06-08T19:03:50.497Z,11.23
2018-06-08T19:06:20.092Z,10.80
2018-06-08T19:08:49.892Z,10.53
2018-06-08T19:11:19.232Z,10.53
2018-06-08T19:13:48.831Z,11.47
2018-06-08T19:16:18.621Z,11.57
2018-06-08T19:18:48.284Z,11.37
2018-06-08T19:21:17.834Z,11.60
2018-06-08T19:23:47.334Z,11.07
2018-06-08T19:26:16.852Z,11.60
2018-06-08T19:28:46.785Z,11.43
2018-06-08T19:31:16.162Z,11.00
2018-06-08T19:33:45.693Z,11.87
2018-06-08T19:36:15.078Z,13.07
2018-06-08T19:38:44.270Z,12.10
2018-06-08T19:41:13.380Z,12.90
2018-06-08T19:43:42.872Z,13.20
2018-06-08T19:46:12.262Z,12.37
2018-06-08T19:48:41.590Z,13.13
2018-06-08T19:51:10.692Z,13.23
2018-06-08T19:53:40.068Z,13.93
2018-06-08T19:56:09.286Z,13.70
2018-06-08T19:58:38.477Z,13.13
2018-06-08T20:01:07.932Z,13.53
2018-06-08T20:03:37.099Z,13.40
2018-06-08T20:06:06.222Z,14.90
2018-06-08T20:08:35.364Z,13.77
2018-06-08T20:11:04.704Z,14.13
2018-06-08T20:13:34.065Z,14.20
2018-06-08T20:16:03.218Z,14.03
2018-06-08T20:18:32.519Z,14.63
2018-06-08T20:21:01.692Z,13.83
2018-06-08T20:23:30.817Z,13.90
2018-06-08T20:26:00.346Z,13.87
2018-06-08T20:28:29.737Z,14.73
2018-06-08T20:30:59.260Z,13.17
2018-06-08T20:33:28.638Z,13.40
2018-06-08T20:35:58.226Z,13.10
2018-06-08T20:38:27.681Z,13.83
2018-06-08T20:40:57.046Z,15.03
2018-06-08T20:43:26.470Z,13.30
2018-06-08T20:45:56.138Z,13.97
2018-06-08T20:48:25.640Z,13.33
2018-06-08T20:50:55.082Z,13.63
2018-06-08T20:53:24.616Z,12.53
2018-06-08T20:55:54.186Z,12.40
2018-06-08T20:58:32.963Z,12.10
2018-06-08T21:01:02.973Z,10.83
2018-06-08T21:03:32.375Z,10.63
2018-06-08T21:06:01.786Z,10.40
2018-06-08T21:08:30.918Z,10.23
2018-06-08T21:11:00.566Z,10.07
2018-06-08T21:13:29.832Z,9.53
2018-06-08T21:15:59.180Z,9.90
2018-06-08T21:18:28.844Z,8.40
2018-06-08T21:20:58.075Z,8.60
2018-06-08T21:23:27.380Z,9.00
2018-06-08T21:25:56.826Z,8.73
2018-06-08T21:28:26.105Z,9.20
2018-06-08T21:30:55.520Z,8.80
2018-06-08T21:33:24.936Z,8.53
2018-06-08T21:35:54.427Z,8.77
2018-06-08T21:38:23.690Z,9.00
2018-06-08T21:40:53.180Z,8.00
2018-06-08T21:43:22.513Z,8.30
2018-06-08T21:45:51.852Z,8.10
2018-06-08T21:48:21.027Z,7.03
2018-06-08T21:50:50.494Z,8.00
2018-06-08T21:53:19.831Z,7.43
2018-06-08T21:55:49.098Z,7.80
2018-06-08T21:58:18.536Z,7.30
2018-06-08T22:00:47.931Z,7.40
2018-06-08T22:03:17.261Z,7.83
2018-06-08T22:05:46.638Z,8.47
2018-06-08T22:08:16.228Z,7.27
2018-06-08T22:10:45.316Z,7.63
2018-06-08T22:13:14.608Z,7.43
2018-06-08T22:15:43.986Z,6.60
2018-06-08T22:18:13.230Z,7.57
2018-06-08T22:20:42.657Z,7.90
2018-06-08T22:23:12.226Z,6.97
2018-06-08T22:25:41.344Z,8.67
2018-06-08T22:28:10.746Z,7.27
2018-06-08T22:30:40.083Z,7.47
2018-06-08T22:33:09.202Z,7.20
2018-06-08T22:35:38.568Z,7.53
2018-06-08T22:38:07.762Z,7.53
2018-06-08T22:40:36.948Z,7.50
2018-06-08T22:43:06.122Z,6.87
2018-06-08T22:45:35.595Z,7.40
2018-06-08T22:48:05.236Z,7.73
2018-06-08T22:50:34.855Z,7.60
2018-06-08T22:53:04.297Z,7.07
2018-06-08T22:55:33.687Z,7.13
2018-06-08T22:58:02.752Z,7.40
2018-06-08T23:00:32.100Z,6.83
2018-06-08T23:03:01.264Z,7.10
2018-06-08T23:05:30.626Z,7.20
2018-06-08T23:08:00.102Z,7.33
2018-06-08T23:10:29.378Z,7.40
2018-06-08T23:12:59.026Z,7.90
2018-06-08T23:15:28.360Z,8.17
2018-06-08T23:17:57.668Z,8.10
2018-06-08T23:20:26.963Z,7.90
2018-06-08T23:22:56.176Z,7.57
2018-06-08T23:25:25.297Z,8.07
2018-06-08T23:27:54.892Z,8.27
2018-06-08T23:30:24.055Z,7.77
2018-06-08T23:32:53.444Z,7.83
2018-06-08T23:35:22.708Z,7.90
2018-06-08T23:37:52.069Z,7.80
2018-06-08T23:40:21.546Z,7.70
2018-06-08T23:42:50.668Z,8.10
2018-06-08T23:45:19.954Z,7.63
2018-06-08T23:47:49.326Z,8.53
2018-06-08T23:50:19.191Z,8.03
2018-06-08T23:52:48.562Z,8.27
2018-06-08T23:55:17.822Z,8.33
2018-06-08T23:57:47.099Z,8.13
